sensor_id;sensor_type;location;lat;lon;timestamp;P1;durP1;ratioP1;P2;durP2;ratioP2
6821;SDS011;3449;48.728;8.968;2023-06-22T00:02:02;11.50;;;6.47;;
6821;SDS011;3449;48.728;8.968;2023-06-22T00:04:29;9.80;;;6.20;;
6821;SDS011;3449;48.728;8.968;2023-06-22T00:06:55;14.17;;;7.60;;
6821;SDS011;3449;48.728;8.968;2023-06-22T00:09:22;12.93;;;6.93;;
6821;SDS011;3449;48.728;8.968;2023-06-22T00:11:51;8.73;;;6.20;;
6821;SDS011;3449;48.728;8.968;2023-06-22T00:14:17;10.10;;;6.50;;
6821;SDS011;3449;48.728;8.968;2023-06-22T00:16:44;9.57;;;6.60;;
6821;SDS011;3449;48.728;8.968;2023-06-22T00:19:14;9.60;;;7.30;;
6821;SDS011;3449;48.728;8.968;2023-06-22T00:21:41;12.70;;;7.07;;
6821;SDS011;3449;48.728;8.968;2023-06-22T00:24:12;12.80;;;6.70;;
6821;SDS011;3449;48.728;8.968;2023-06-22T00:26:39;9.63;;;7.27;;
6821;SDS011;3449;48.728;8.968;2023-06-22T00:29:07;17.30;;;7.00;;
6821;SDS011;3449;48.728;8.968;2023-06-22T00:31:34;11.07;;;6.50;;
6821;SDS011;3449;48.728;8.968;2023-06-22T00:34:00;12.17;;;6.73;;
6821;SDS011;3449;48.728;8.968;2023-06-22T00:36:27;10.00;;;6.30;;
6821;SDS011;3449;48.728;8.968;2023-06-22T00:38:54;9.87;;;6.43;;
6821;SDS011;3449;48.728;8.968;2023-06-22T00:41:22;10.37;;;6.80;;
6821;SDS011;3449;48.728;8.968;2023-06-22T00:43:49;13.80;;;7.63;;
6821;SDS011;3449;48.728;8.968;2023-06-22T00:46:17;10.00;;;6.90;;
6821;SDS011;3449;48.728;8.968;2023-06-22T00:48:44;10.10;;;6.27;;
6821;SDS011;3449;48.728;8.968;2023-06-22T00:51:11;10.67;;;6.47;;
6821;SDS011;3449;48.728;8.968;2023-06-22T00:53:38;11.80;;;7.90;;
6821;SDS011;3449;48.728;8.968;2023-06-22T00:56:06;11.10;;;6.90;;
6821;SDS011;3449;48.728;8.968;2023-06-22T00:58:34;11.90;;;7.37;;
6821;SDS011;3449;48.728;8.968;2023-06-22T01:01:01;11.77;;;6.87;;
6821;SDS011;3449;48.728;8.968;2023-06-22T01:03:30;9.80;;;6.50;;
6821;SDS011;3449;48.728;8.968;2023-06-22T01:05:58;12.30;;;7.60;;
6821;SDS011;3449;48.728;8.968;2023-06-22T01:08:38;9.40;;;7.23;;
6821;SDS011;3449;48.728;8.968;2023-06-22T01:11:12;11.80;;;7.23;;
6821;SDS011;3449;48.728;8.968;2023-06-22T01:13:45;12.53;;;7.50;;
6821;SDS011;3449;48.728;8.968;2023-06-22T01:16:19;10.87;;;7.57;;
6821;SDS011;3449;48.728;8.968;2023-06-22T01:18:52;11.50;;;7.83;;
6821;SDS011;3449;48.728;8.968;2023-06-22T01:21:22;11.90;;;7.60;;
6821;SDS011;3449;48.728;8.968;2023-06-22T01:23:54;10.60;;;7.13;;
6821;SDS011;3449;48.728;8.968;2023-06-22T01:26:28;20.10;;;9.20;;
6821;SDS011;3449;48.728;8.968;2023-06-22T01:29:05;17.20;;;8.77;;
6821;SDS011;3449;48.728;8.968;2023-06-22T01:31:33;17.00;;;8.80;;
6821;SDS011;3449;48.728;8.968;2023-06-22T01:34:01;13.57;;;8.00;;
6821;SDS011;3449;48.728;8.968;2023-06-22T01:36:31;17.60;;;7.80;;
6821;SDS011;3449;48.728;8.968;2023-06-22T01:38:59;14.80;;;7.57;;
6821;SDS011;3449;48.728;8.968;2023-06-22T01:41:27;14.00;;;7.60;;
6821;SDS011;3449;48.728;8.968;2023-06-22T01:43:56;15.10;;;8.07;;
6821;SDS011;3449;48.728;8.968;2023-06-22T01:46:25;10.50;;;7.63;;
6821;SDS011;3449;48.728;8.968;2023-06-22T01:48:52;11.17;;;7.23;;
6821;SDS011;3449;48.728;8.968;2023-06-22T01:51:19;15.57;;;8.10;;
6821;SDS011;3449;48.728;8.968;2023-06-22T01:53:46;10.40;;;7.30;;
6821;SDS011;3449;48.728;8.968;2023-06-22T01:56:15;13.87;;;8.13;;
6821;SDS011;3449;48.728;8.968;2023-06-22T01:58:45;14.20;;;7.80;;
6821;SDS011;3449;48.728;8.968;2023-06-22T02:01:17;11.17;;;7.67;;
6821;SDS011;3449;48.728;8.968;2023-06-22T02:03:52;12.20;;;8.37;;
6821;SDS011;3449;48.728;8.968;2023-06-22T02:06:27;14.50;;;7.77;;
6821;SDS011;3449;48.728;8.968;2023-06-22T02:09:01;14.43;;;7.67;;
6821;SDS011;3449;48.728;8.968;2023-06-22T02:11:35;11.97;;;7.83;;
6821;SDS011;3449;48.728;8.968;2023-06-22T02:14:03;11.50;;;7.67;;
6821;SDS011;3449;48.728;8.968;2023-06-22T02:16:31;15.70;;;7.83;;
6821;SDS011;3449;48.728;8.968;2023-06-22T02:19:02;17.90;;;8.73;;
6821;SDS011;3449;48.728;8.968;2023-06-22T02:21:31;15.20;;;7.67;;
6821;SDS011;3449;48.728;8.968;2023-06-22T02:23:58;12.40;;;7.00;;
6821;SDS011;3449;48.728;8.968;2023-06-22T02:26:27;10.70;;;7.53;;
6821;SDS011;3449;48.728;8.968;2023-06-22T02:28:58;16.47;;;8.20;;
6821;SDS011;3449;48.728;8.968;2023-06-22T02:31:25;16.47;;;7.77;;
6821;SDS011;3449;48.728;8.968;2023-06-22T02:33:55;17.53;;;8.63;;
6821;SDS011;3449;48.728;8.968;2023-06-22T02:36:23;11.40;;;8.43;;
6821;SDS011;3449;48.728;8.968;2023-06-22T02:38:52;12.97;;;7.90;;
6821;SDS011;3449;48.728;8.968;2023-06-22T02:41:19;11.87;;;7.33;;
6821;SDS011;3449;48.728;8.968;2023-06-22T02:43:46;12.17;;;7.00;;
6821;SDS011;3449;48.728;8.968;2023-06-22T02:46:13;25.13;;;9.27;;
6821;SDS011;3449;48.728;8.968;2023-06-22T02:48:40;17.47;;;8.33;;
6821;SDS011;3449;48.728;8.968;2023-06-22T02:51:07;12.83;;;7.73;;
6821;SDS011;3449;48.728;8.968;2023-06-22T02:53:36;9.00;;;7.13;;
6821;SDS011;3449;48.728;8.968;2023-06-22T02:56:03;15.00;;;7.93;;
6821;SDS011;3449;48.728;8.968;2023-06-22T02:58:31;13.30;;;7.87;;
6821;SDS011;3449;48.728;8.968;2023-06-22T03:01:06;13.10;;;8.03;;
6821;SDS011;3449;48.728;8.968;2023-06-22T03:03:33;11.20;;;7.37;;
6821;SDS011;3449;48.728;8.968;2023-06-22T03:06:00;16.20;;;7.83;;
6821;SDS011;3449;48.728;8.968;2023-06-22T03:08:27;14.73;;;9.17;;
6821;SDS011;3449;48.728;8.968;2023-06-22T03:13:24;12.27;;;7.73;;
6821;SDS011;3449;48.728;8.968;2023-06-22T03:15:50;11.33;;;8.20;;
6821;SDS011;3449;48.728;8.968;2023-06-22T03:18:17;11.70;;;8.03;;
6821;SDS011;3449;48.728;8.968;2023-06-22T03:20:44;10.13;;;7.13;;
6821;SDS011;3449;48.728;8.968;2023-06-22T03:23:11;14.00;;;8.83;;
6821;SDS011;3449;48.728;8.968;2023-06-22T03:25:38;14.20;;;9.07;;
6821;SDS011;3449;48.728;8.968;2023-06-22T03:28:06;15.70;;;9.03;;
6821;SDS011;3449;48.728;8.968;2023-06-22T03:30:33;15.13;;;8.10;;
6821;SDS011;3449;48.728;8.968;2023-06-22T03:33:00;15.37;;;9.93;;
6821;SDS011;3449;48.728;8.968;2023-06-22T03:35:27;14.70;;;9.63;;
6821;SDS011;3449;48.728;8.968;2023-06-22T03:37:54;14.70;;;8.77;;
6821;SDS011;3449;48.728;8.968;2023-06-22T03:40:20;18.90;;;9.10;;
6821;SDS011;3449;48.728;8.968;2023-06-22T03:42:47;19.67;;;9.50;;
6821;SDS011;3449;48.728;8.968;2023-06-22T03:45:16;15.17;;;9.83;;
6821;SDS011;3449;48.728;8.968;2023-06-22T03:47:43;16.67;;;9.40;;
6821;SDS011;3449;48.728;8.968;2023-06-22T03:50:11;19.83;;;8.70;;
6821;SDS011;3449;48.728;8.968;2023-06-22T03:52:38;18.70;;;9.20;;
6821;SDS011;3449;48.728;8.968;2023-06-22T03:55:06;16.07;;;10.10;;
6821;SDS011;3449;48.728;8.968;2023-06-22T03:57:33;16.80;;;9.87;;
6821;SDS011;3449;48.728;8.968;2023-06-22T04:00:00;15.87;;;9.53;;
6821;SDS011;3449;48.728;8.968;2023-06-22T04:02:29;16.17;;;10.43;;
6821;SDS011;3449;48.728;8.968;2023-06-22T04:04:58;15.27;;;10.60;;
6821;SDS011;3449;48.728;8.968;2023-06-22T04:07:25;13.33;;;9.90;;
6821;SDS011;3449;48.728;8.968;2023-06-22T04:09:52;12.40;;;9.47;;
6821;SDS011;3449;48.728;8.968;2023-06-22T04:12:19;16.03;;;9.33;;
6821;SDS011;3449;48.728;8.968;2023-06-22T04:14:46;15.23;;;9.63;;
6821;SDS011;3449;48.728;8.968;2023-06-22T04:17:12;15.87;;;10.00;;
6821;SDS011;3449;48.728;8.968;2023-06-22T04:19:41;16.50;;;10.00;;
6821;SDS011;3449;48.728;8.968;2023-06-22T04:22:08;22.77;;;10.13;;
6821;SDS011;3449;48.728;8.968;2023-06-22T04:24:35;17.23;;;11.30;;
6821;SDS011;3449;48.728;8.968;2023-06-22T04:27:02;14.43;;;8.93;;
6821;SDS011;3449;48.728;8.968;2023-06-22T04:29:29;14.50;;;9.47;;
6821;SDS011;3449;48.728;8.968;2023-06-22T04:31:56;22.30;;;10.13;;
6821;SDS011;3449;48.728;8.968;2023-06-22T04:34:28;14.30;;;8.50;;
6821;SDS011;3449;48.728;8.968;2023-06-22T04:36:59;14.63;;;8.50;;
6821;SDS011;3449;48.728;8.968;2023-06-22T04:39:28;14.70;;;9.70;;
6821;SDS011;3449;48.728;8.968;2023-06-22T04:41:55;16.53;;;8.80;;
6821;SDS011;3449;48.728;8.968;2023-06-22T04:44:25;14.03;;;8.77;;
6821;SDS011;3449;48.728;8.968;2023-06-22T04:46:52;18.03;;;9.30;;
6821;SDS011;3449;48.728;8.968;2023-06-22T04:49:25;14.53;;;9.10;;
6821;SDS011;3449;48.728;8.968;2023-06-22T04:51:59;21.13;;;10.40;;
6821;SDS011;3449;48.728;8.968;2023-06-22T04:54:26;17.20;;;10.00;;
6821;SDS011;3449;48.728;8.968;2023-06-22T04:56:53;18.10;;;9.50;;
6821;SDS011;3449;48.728;8.968;2023-06-22T04:59:28;17.53;;;9.13;;
6821;SDS011;3449;48.728;8.968;2023-06-22T05:01:59;17.43;;;8.60;;
6821;SDS011;3449;48.728;8.968;2023-06-22T05:04:28;10.80;;;8.00;;
6821;SDS011;3449;48.728;8.968;2023-06-22T05:06:56;15.97;;;8.57;;
6821;SDS011;3449;48.728;8.968;2023-06-22T05:09:25;12.47;;;8.40;;
6821;SDS011;3449;48.728;8.968;2023-06-22T05:11:52;13.13;;;8.33;;
6821;SDS011;3449;48.728;8.968;2023-06-22T05:14:21;12.53;;;8.40;;
6821;SDS011;3449;48.728;8.968;2023-06-22T05:16:49;12.77;;;7.53;;
6821;SDS011;3449;48.728;8.968;2023-06-22T05:19:18;15.20;;;7.83;;
6821;SDS011;3449;48.728;8.968;2023-06-22T05:21:45;12.97;;;8.10;;
6821;SDS011;3449;48.728;8.968;2023-06-22T05:24:12;10.73;;;8.00;;
6821;SDS011;3449;48.728;8.968;2023-06-22T05:26:40;18.30;;;7.40;;
6821;SDS011;3449;48.728;8.968;2023-06-22T05:29:16;13.87;;;7.30;;
6821;SDS011;3449;48.728;8.968;2023-06-22T05:31:43;8.90;;;7.00;;
6821;SDS011;3449;48.728;8.968;2023-06-22T05:34:10;10.70;;;7.07;;
6821;SDS011;3449;48.728;8.968;2023-06-22T05:36:37;15.30;;;7.03;;
6821;SDS011;3449;48.728;8.968;2023-06-22T05:39:10;11.73;;;6.97;;
6821;SDS011;3449;48.728;8.968;2023-06-22T05:41:38;14.43;;;7.60;;
6821;SDS011;3449;48.728;8.968;2023-06-22T05:44:06;13.70;;;6.30;;
6821;SDS011;3449;48.728;8.968;2023-06-22T05:46:33;12.37;;;5.80;;
6821;SDS011;3449;48.728;8.968;2023-06-22T05:49:00;10.33;;;5.90;;
6821;SDS011;3449;48.728;8.968;2023-06-22T05:51:27;9.37;;;6.57;;
6821;SDS011;3449;48.728;8.968;2023-06-22T05:53:54;9.07;;;6.10;;
6821;SDS011;3449;48.728;8.968;2023-06-22T05:56:21;10.10;;;5.63;;
6821;SDS011;3449;48.728;8.968;2023-06-22T05:58:48;14.73;;;5.30;;
6821;SDS011;3449;48.728;8.968;2023-06-22T06:01:16;11.27;;;5.67;;
6821;SDS011;3449;48.728;8.968;2023-06-22T06:03:43;6.37;;;5.00;;
6821;SDS011;3449;48.728;8.968;2023-06-22T06:06:12;8.87;;;5.20;;
6821;SDS011;3449;48.728;8.968;2023-06-22T06:08:39;13.03;;;5.10;;
6821;SDS011;3449;48.728;8.968;2023-06-22T06:11:07;11.87;;;6.10;;
6821;SDS011;3449;48.728;8.968;2023-06-22T06:13:33;8.80;;;5.23;;
6821;SDS011;3449;48.728;8.968;2023-06-22T06:16:00;10.73;;;5.47;;
6821;SDS011;3449;48.728;8.968;2023-06-22T06:18:31;10.97;;;5.37;;
6821;SDS011;3449;48.728;8.968;2023-06-22T06:20:58;9.07;;;4.97;;
6821;SDS011;3449;48.728;8.968;2023-06-22T06:23:26;8.10;;;4.90;;
6821;SDS011;3449;48.728;8.968;2023-06-22T06:25:53;61.13;;;30.67;;
6821;SDS011;3449;48.728;8.968;2023-06-22T06:28:20;8.03;;;5.20;;
6821;SDS011;3449;48.728;8.968;2023-06-22T06:30:48;8.07;;;4.93;;
6821;SDS011;3449;48.728;8.968;2023-06-22T06:33:16;11.70;;;4.20;;
6821;SDS011;3449;48.728;8.968;2023-06-22T06:35:45;8.17;;;5.40;;
6821;SDS011;3449;48.728;8.968;2023-06-22T06:38:11;9.00;;;4.57;;
6821;SDS011;3449;48.728;8.968;2023-06-22T06:40:38;5.23;;;4.73;;
6821;SDS011;3449;48.728;8.968;2023-06-22T06:43:05;11.37;;;5.27;;
6821;SDS011;3449;48.728;8.968;2023-06-22T06:45:32;7.53;;;4.63;;
6821;SDS011;3449;48.728;8.968;2023-06-22T06:47:59;6.97;;;4.50;;
6821;SDS011;3449;48.728;8.968;2023-06-22T06:50:29;8.50;;;4.67;;
6821;SDS011;3449;48.728;8.968;2023-06-22T06:52:59;12.40;;;4.00;;
6821;SDS011;3449;48.728;8.968;2023-06-22T06:55:26;6.10;;;4.50;;
6821;SDS011;3449;48.728;8.968;2023-06-22T06:57:53;7.27;;;4.57;;
6821;SDS011;3449;48.728;8.968;2023-06-22T07:00:20;6.07;;;4.03;;
6821;SDS011;3449;48.728;8.968;2023-06-22T07:02:47;9.17;;;4.20;;
6821;SDS011;3449;48.728;8.968;2023-06-22T07:05:14;6.30;;;3.97;;
6821;SDS011;3449;48.728;8.968;2023-06-22T07:07:41;18.43;;;4.30;;
6821;SDS011;3449;48.728;8.968;2023-06-22T07:10:12;7.90;;;4.40;;
6821;SDS011;3449;48.728;8.968;2023-06-22T07:12:40;5.60;;;3.93;;
6821;SDS011;3449;48.728;8.968;2023-06-22T07:15:08;5.83;;;3.90;;
6821;SDS011;3449;48.728;8.968;2023-06-22T07:17:36;7.90;;;4.63;;
6821;SDS011;3449;48.728;8.968;2023-06-22T07:20:04;8.27;;;4.90;;
6821;SDS011;3449;48.728;8.968;2023-06-22T07:22:35;11.90;;;4.30;;
6821;SDS011;3449;48.728;8.968;2023-06-22T07:25:02;6.10;;;3.90;;
6821;SDS011;3449;48.728;8.968;2023-06-22T07:27:35;7.20;;;3.50;;
6821;SDS011;3449;48.728;8.968;2023-06-22T07:30:06;24.13;;;5.77;;
6821;SDS011;3449;48.728;8.968;2023-06-22T07:32:34;7.13;;;3.70;;
6821;SDS011;3449;48.728;8.968;2023-06-22T07:35:01;9.80;;;3.93;;
6821;SDS011;3449;48.728;8.968;2023-06-22T07:37:29;7.70;;;5.20;;
6821;SDS011;3449;48.728;8.968;2023-06-22T07:39:58;12.33;;;5.80;;
6821;SDS011;3449;48.728;8.968;2023-06-22T07:42:25;5.93;;;4.03;;
6821;SDS011;3449;48.728;8.968;2023-06-22T07:44:53;9.83;;;3.97;;
6821;SDS011;3449;48.728;8.968;2023-06-22T07:47:21;8.70;;;4.70;;
6821;SDS011;3449;48.728;8.968;2023-06-22T07:49:50;8.70;;;3.80;;
6821;SDS011;3449;48.728;8.968;2023-06-22T07:52:19;14.67;;;4.97;;
6821;SDS011;3449;48.728;8.968;2023-06-22T07:54:47;11.10;;;4.40;;
6821;SDS011;3449;48.728;8.968;2023-06-22T07:57:16;8.57;;;3.90;;
6821;SDS011;3449;48.728;8.968;2023-06-22T07:59:43;6.50;;;4.03;;
6821;SDS011;3449;48.728;8.968;2023-06-22T08:02:11;7.10;;;4.80;;
6821;SDS011;3449;48.728;8.968;2023-06-22T08:04:39;7.93;;;4.00;;
6821;SDS011;3449;48.728;8.968;2023-06-22T08:07:06;8.50;;;4.27;;
6821;SDS011;3449;48.728;8.968;2023-06-22T08:09:33;13.50;;;4.30;;
6821;SDS011;3449;48.728;8.968;2023-06-22T08:12:00;8.50;;;4.53;;
6821;SDS011;3449;48.728;8.968;2023-06-22T08:14:27;8.47;;;5.30;;
6821;SDS011;3449;48.728;8.968;2023-06-22T08:16:57;7.17;;;5.10;;
6821;SDS011;3449;48.728;8.968;2023-06-22T08:19:25;7.67;;;4.30;;
6821;SDS011;3449;48.728;8.968;2023-06-22T08:21:52;8.10;;;4.27;;
6821;SDS011;3449;48.728;8.968;2023-06-22T08:24:19;9.87;;;4.37;;
6821;SDS011;3449;48.728;8.968;2023-06-22T08:26:46;6.20;;;4.10;;
6821;SDS011;3449;48.728;8.968;2023-06-22T08:29:13;8.37;;;4.70;;
6821;SDS011;3449;48.728;8.968;2023-06-22T08:31:40;9.50;;;5.20;;
6821;SDS011;3449;48.728;8.968;2023-06-22T08:34:07;9.77;;;4.80;;
6821;SDS011;3449;48.728;8.968;2023-06-22T08:36:35;10.10;;;4.93;;
6821;SDS011;3449;48.728;8.968;2023-06-22T08:39:06;7.30;;;4.70;;
6821;SDS011;3449;48.728;8.968;2023-06-22T08:41:34;8.07;;;5.37;;
6821;SDS011;3449;48.728;8.968;2023-06-22T08:44:01;8.10;;;5.07;;
6821;SDS011;3449;48.728;8.968;2023-06-22T08:46:27;9.73;;;5.07;;
6821;SDS011;3449;48.728;8.968;2023-06-22T08:48:58;10.13;;;4.97;;
6821;SDS011;3449;48.728;8.968;2023-06-22T08:51:25;6.47;;;3.93;;
6821;SDS011;3449;48.728;8.968;2023-06-22T08:53:54;6.93;;;4.50;;
6821;SDS011;3449;48.728;8.968;2023-06-22T08:56:21;7.83;;;4.13;;
6821;SDS011;3449;48.728;8.968;2023-06-22T08:58:47;8.00;;;4.53;;
6821;SDS011;3449;48.728;8.968;2023-06-22T09:01:14;8.50;;;5.23;;
6821;SDS011;3449;48.728;8.968;2023-06-22T09:03:41;10.13;;;5.17;;
6821;SDS011;3449;48.728;8.968;2023-06-22T09:06:08;9.23;;;4.73;;
6821;SDS011;3449;48.728;8.968;2023-06-22T09:08:35;9.80;;;4.20;;
6821;SDS011;3449;48.728;8.968;2023-06-22T09:11:03;7.37;;;4.57;;
6821;SDS011;3449;48.728;8.968;2023-06-22T09:13:30;8.77;;;5.53;;
6821;SDS011;3449;48.728;8.968;2023-06-22T09:15:57;12.77;;;5.33;;
6821;SDS011;3449;48.728;8.968;2023-06-22T09:18:24;9.67;;;4.97;;
6821;SDS011;3449;48.728;8.968;2023-06-22T09:20:51;14.20;;;4.27;;
6821;SDS011;3449;48.728;8.968;2023-06-22T09:23:18;8.03;;;4.30;;
6821;SDS011;3449;48.728;8.968;2023-06-22T09:25:45;13.47;;;5.10;;
6821;SDS011;3449;48.728;8.968;2023-06-22T09:28:14;9.20;;;4.07;;
6821;SDS011;3449;48.728;8.968;2023-06-22T09:30:42;7.83;;;5.10;;
6821;SDS011;3449;48.728;8.968;2023-06-22T09:33:10;7.90;;;4.70;;
6821;SDS011;3449;48.728;8.968;2023-06-22T09:35:36;8.63;;;4.00;;
6821;SDS011;3449;48.728;8.968;2023-06-22T09:38:03;11.43;;;4.80;;
6821;SDS011;3449;48.728;8.968;2023-06-22T09:40:30;9.57;;;5.10;;
6821;SDS011;3449;48.728;8.968;2023-06-22T09:43:00;9.57;;;4.23;;
6821;SDS011;3449;48.728;8.968;2023-06-22T09:45:28;10.33;;;5.07;;
6821;SDS011;3449;48.728;8.968;2023-06-22T09:47:55;10.70;;;4.20;;
6821;SDS011;3449;48.728;8.968;2023-06-22T09:50:22;12.60;;;4.60;;
6821;SDS011;3449;48.728;8.968;2023-06-22T09:52:49;13.20;;;4.17;;
6821;SDS011;3449;48.728;8.968;2023-06-22T09:55:19;8.63;;;4.50;;
6821;SDS011;3449;48.728;8.968;2023-06-22T09:57:46;12.27;;;5.80;;
6821;SDS011;3449;48.728;8.968;2023-06-22T10:00:14;8.27;;;4.87;;
6821;SDS011;3449;48.728;8.968;2023-06-22T10:02:46;10.83;;;5.00;;
6821;SDS011;3449;48.728;8.968;2023-06-22T10:05:13;9.30;;;4.87;;
6821;SDS011;3449;48.728;8.968;2023-06-22T10:07:40;6.10;;;4.43;;
6821;SDS011;3449;48.728;8.968;2023-06-22T10:10:09;7.13;;;4.30;;
6821;SDS011;3449;48.728;8.968;2023-06-22T10:12:36;12.27;;;5.47;;
6821;SDS011;3449;48.728;8.968;2023-06-22T10:15:04;7.70;;;4.13;;
6821;SDS011;3449;48.728;8.968;2023-06-22T10:17:31;8.53;;;4.00;;
6821;SDS011;3449;48.728;8.968;2023-06-22T10:20:00;9.10;;;4.70;;
6821;SDS011;3449;48.728;8.968;2023-06-22T10:22:31;6.10;;;4.50;;
6821;SDS011;3449;48.728;8.968;2023-06-22T10:24:57;7.47;;;3.97;;
6821;SDS011;3449;48.728;8.968;2023-06-22T10:27:24;9.73;;;4.43;;
6821;SDS011;3449;48.728;8.968;2023-06-22T10:29:52;11.53;;;5.70;;
6821;SDS011;3449;48.728;8.968;2023-06-22T10:32:20;7.03;;;4.53;;
6821;SDS011;3449;48.728;8.968;2023-06-22T10:34:46;12.00;;;4.87;;
6821;SDS011;3449;48.728;8.968;2023-06-22T10:37:15;10.23;;;4.33;;
6821;SDS011;3449;48.728;8.968;2023-06-22T10:39:41;9.33;;;5.10;;
6821;SDS011;3449;48.728;8.968;2023-06-22T10:42:11;10.53;;;4.20;;
6821;SDS011;3449;48.728;8.968;2023-06-22T10:44:38;11.73;;;5.10;;
6821;SDS011;3449;48.728;8.968;2023-06-22T10:47:06;12.40;;;4.53;;
6821;SDS011;3449;48.728;8.968;2023-06-22T10:49:33;10.80;;;4.50;;
6821;SDS011;3449;48.728;8.968;2023-06-22T10:52:01;7.33;;;3.87;;
6821;SDS011;3449;48.728;8.968;2023-06-22T10:54:29;11.53;;;4.80;;
6821;SDS011;3449;48.728;8.968;2023-06-22T10:56:57;10.93;;;5.20;;
6821;SDS011;3449;48.728;8.968;2023-06-22T10:59:24;9.80;;;5.00;;
6821;SDS011;3449;48.728;8.968;2023-06-22T11:01:52;11.53;;;4.00;;
6821;SDS011;3449;48.728;8.968;2023-06-22T11:04:19;8.40;;;5.03;;
6821;SDS011;3449;48.728;8.968;2023-06-22T11:06:47;13.10;;;4.83;;
6821;SDS011;3449;48.728;8.968;2023-06-22T11:09:14;8.20;;;5.17;;
6821;SDS011;3449;48.728;8.968;2023-06-22T11:11:45;8.50;;;4.70;;
6821;SDS011;3449;48.728;8.968;2023-06-22T11:14:12;9.27;;;4.40;;
6821;SDS011;3449;48.728;8.968;2023-06-22T11:16:39;11.23;;;5.00;;
6821;SDS011;3449;48.728;8.968;2023-06-22T11:19:06;9.70;;;3.90;;
6821;SDS011;3449;48.728;8.968;2023-06-22T11:21:36;6.03;;;4.47;;
6821;SDS011;3449;48.728;8.968;2023-06-22T11:24:03;11.93;;;5.10;;
6821;SDS011;3449;48.728;8.968;2023-06-22T11:26:30;9.00;;;4.20;;
6821;SDS011;3449;48.728;8.968;2023-06-22T11:28:59;13.57;;;4.40;;
6821;SDS011;3449;48.728;8.968;2023-06-22T11:31:26;11.33;;;4.67;;
6821;SDS011;3449;48.728;8.968;2023-06-22T11:33:53;9.77;;;4.40;;
6821;SDS011;3449;48.728;8.968;2023-06-22T11:36:20;9.40;;;3.93;;
6821;SDS011;3449;48.728;8.968;2023-06-22T11:38:46;10.17;;;4.50;;
6821;SDS011;3449;48.728;8.968;2023-06-22T11:41:13;10.23;;;4.77;;
6821;SDS011;3449;48.728;8.968;2023-06-22T11:43:40;11.20;;;3.93;;
6821;SDS011;3449;48.728;8.968;2023-06-22T11:46:08;6.70;;;4.20;;
6821;SDS011;3449;48.728;8.968;2023-06-22T11:48:36;9.20;;;4.50;;
6821;SDS011;3449;48.728;8.968;2023-06-22T11:51:03;12.63;;;4.67;;
6821;SDS011;3449;48.728;8.968;2023-06-22T11:53:31;7.70;;;5.03;;
6821;SDS011;3449;48.728;8.968;2023-06-22T11:55:59;22.80;;;5.00;;
6821;SDS011;3449;48.728;8.968;2023-06-22T11:58:26;12.50;;;5.10;;
6821;SDS011;3449;48.728;8.968;2023-06-22T12:00:53;6.90;;;4.73;;
6821;SDS011;3449;48.728;8.968;2023-06-22T12:03:26;8.47;;;4.67;;
6821;SDS011;3449;48.728;8.968;2023-06-22T12:05:54;9.13;;;4.90;;
6821;SDS011;3449;48.728;8.968;2023-06-22T12:08:20;17.83;;;7.17;;
6821;SDS011;3449;48.728;8.968;2023-06-22T12:10:48;8.60;;;4.70;;
6821;SDS011;3449;48.728;8.968;2023-06-22T12:13:16;11.87;;;5.37;;
6821;SDS011;3449;48.728;8.968;2023-06-22T12:15:43;15.43;;;6.30;;
6821;SDS011;3449;48.728;8.968;2023-06-22T12:18:10;10.40;;;4.70;;
6821;SDS011;3449;48.728;8.968;2023-06-22T12:20:40;8.60;;;5.00;;
6821;SDS011;3449;48.728;8.968;2023-06-22T12:23:09;7.73;;;4.30;;
6821;SDS011;3449;48.728;8.968;2023-06-22T12:25:36;18.40;;;5.57;;
6821;SDS011;3449;48.728;8.968;2023-06-22T12:28:05;9.33;;;4.97;;
6821;SDS011;3449;48.728;8.968;2023-06-22T12:30:32;12.30;;;6.57;;
6821;SDS011;3449;48.728;8.968;2023-06-22T12:32:59;13.93;;;5.07;;
6821;SDS011;3449;48.728;8.968;2023-06-22T12:35:26;10.20;;;5.30;;
6821;SDS011;3449;48.728;8.968;2023-06-22T12:37:55;12.27;;;4.57;;
6821;SDS011;3449;48.728;8.968;2023-06-22T12:40:22;13.30;;;5.27;;
6821;SDS011;3449;48.728;8.968;2023-06-22T12:42:49;9.47;;;4.97;;
6821;SDS011;3449;48.728;8.968;2023-06-22T12:45:16;8.10;;;4.83;;
6821;SDS011;3449;48.728;8.968;2023-06-22T12:47:43;11.60;;;5.00;;
6821;SDS011;3449;48.728;8.968;2023-06-22T12:50:10;10.90;;;5.37;;
6821;SDS011;3449;48.728;8.968;2023-06-22T12:52:39;12.93;;;5.87;;
6821;SDS011;3449;48.728;8.968;2023-06-22T12:55:08;10.73;;;5.10;;
6821;SDS011;3449;48.728;8.968;2023-06-22T12:57:35;10.40;;;5.83;;
6821;SDS011;3449;48.728;8.968;2023-06-22T13:00:02;7.57;;;5.67;;
6821;SDS011;3449;48.728;8.968;2023-06-22T13:02:30;16.07;;;5.23;;
6821;SDS011;3449;48.728;8.968;2023-06-22T13:04:57;10.07;;;5.87;;
6821;SDS011;3449;48.728;8.968;2023-06-22T13:07:24;11.83;;;6.17;;
6821;SDS011;3449;48.728;8.968;2023-06-22T13:09:51;8.23;;;4.97;;
6821;SDS011;3449;48.728;8.968;2023-06-22T13:12:19;16.27;;;5.87;;
6821;SDS011;3449;48.728;8.968;2023-06-22T13:14:46;11.43;;;5.40;;
6821;SDS011;3449;48.728;8.968;2023-06-22T13:17:13;9.00;;;5.77;;
6821;SDS011;3449;48.728;8.968;2023-06-22T13:19:40;11.30;;;5.50;;
6821;SDS011;3449;48.728;8.968;2023-06-22T13:22:24;11.43;;;5.97;;
6821;SDS011;3449;48.728;8.968;2023-06-22T13:24:53;11.97;;;5.40;;
6821;SDS011;3449;48.728;8.968;2023-06-22T13:27:21;13.83;;;4.20;;
6821;SDS011;3449;48.728;8.968;2023-06-22T13:29:48;8.00;;;5.57;;
6821;SDS011;3449;48.728;8.968;2023-06-22T13:32:15;7.27;;;4.50;;
6821;SDS011;3449;48.728;8.968;2023-06-22T13:34:45;13.73;;;4.93;;
6821;SDS011;3449;48.728;8.968;2023-06-22T13:37:12;11.77;;;5.10;;
6821;SDS011;3449;48.728;8.968;2023-06-22T13:39:41;8.03;;;4.47;;
6821;SDS011;3449;48.728;8.968;2023-06-22T13:42:10;7.57;;;4.63;;
6821;SDS011;3449;48.728;8.968;2023-06-22T13:44:38;11.90;;;5.30;;
6821;SDS011;3449;48.728;8.968;2023-06-22T13:47:05;9.90;;;4.67;;
6821;SDS011;3449;48.728;8.968;2023-06-22T13:49:32;13.20;;;4.97;;
6821;SDS011;3449;48.728;8.968;2023-06-22T13:51:59;11.63;;;4.73;;
6821;SDS011;3449;48.728;8.968;2023-06-22T13:54:28;9.07;;;4.60;;
6821;SDS011;3449;48.728;8.968;2023-06-22T13:56:55;21.37;;;5.40;;
6821;SDS011;3449;48.728;8.968;2023-06-22T13:59:22;8.97;;;3.67;;
6821;SDS011;3449;48.728;8.968;2023-06-22T14:01:50;6.60;;;4.40;;
6821;SDS011;3449;48.728;8.968;2023-06-22T14:04:17;10.13;;;5.10;;
6821;SDS011;3449;48.728;8.968;2023-06-22T14:06:44;12.43;;;4.73;;
6821;SDS011;3449;48.728;8.968;2023-06-22T14:09:11;9.00;;;5.13;;
6821;SDS011;3449;48.728;8.968;2023-06-22T14:11:37;9.60;;;4.53;;
6821;SDS011;3449;48.728;8.968;2023-06-22T14:14:04;10.53;;;5.20;;
6821;SDS011;3449;48.728;8.968;2023-06-22T14:16:31;13.50;;;5.13;;
6821;SDS011;3449;48.728;8.968;2023-06-22T14:18:59;15.73;;;3.90;;
6821;SDS011;3449;48.728;8.968;2023-06-22T14:21:26;9.20;;;4.27;;
6821;SDS011;3449;48.728;8.968;2023-06-22T14:23:53;7.50;;;3.10;;
6821;SDS011;3449;48.728;8.968;2023-06-22T14:26:20;14.93;;;4.43;;
6821;SDS011;3449;48.728;8.968;2023-06-22T14:28:47;7.20;;;3.10;;
6821;SDS011;3449;48.728;8.968;2023-06-22T14:31:15;22.57;;;3.17;;
6821;SDS011;3449;48.728;8.968;2023-06-22T14:33:46;5.60;;;2.30;;
6821;SDS011;3449;48.728;8.968;2023-06-22T14:36:16;13.53;;;3.10;;
6821;SDS011;3449;48.728;8.968;2023-06-22T14:38:43;10.53;;;2.70;;
6821;SDS011;3449;48.728;8.968;2023-06-22T14:41:11;14.03;;;2.60;;
6821;SDS011;3449;48.728;8.968;2023-06-22T14:43:43;7.80;;;2.60;;
6821;SDS011;3449;48.728;8.968;2023-06-22T14:46:11;10.93;;;2.70;;
6821;SDS011;3449;48.728;8.968;2023-06-22T14:48:38;10.10;;;2.83;;
6821;SDS011;3449;48.728;8.968;2023-06-22T14:51:05;5.43;;;2.00;;
6821;SDS011;3449;48.728;8.968;2023-06-22T14:53:33;9.40;;;2.30;;
6821;SDS011;3449;48.728;8.968;2023-06-22T14:56:00;4.50;;;2.50;;
6821;SDS011;3449;48.728;8.968;2023-06-22T14:58:27;7.03;;;3.00;;
6821;SDS011;3449;48.728;8.968;2023-06-22T15:00:55;12.20;;;2.80;;
6821;SDS011;3449;48.728;8.968;2023-06-22T15:03:21;11.83;;;2.80;;
6821;SDS011;3449;48.728;8.968;2023-06-22T15:05:52;5.50;;;2.83;;
6821;SDS011;3449;48.728;8.968;2023-06-22T15:08:20;7.33;;;2.30;;
6821;SDS011;3449;48.728;8.968;2023-06-22T15:10:48;7.50;;;2.60;;
6821;SDS011;3449;48.728;8.968;2023-06-22T15:13:15;7.50;;;2.60;;